sensor_id;sensor_type;location;lat;lon;timestamp;pressure;altitude;pressure_sealevel;temperature;humidity
77212;BME280;66206;0.000;0.000;2023-04-01T00:00:39;96390.62;;;22.43;29.90
77212;BME280;66206;0.000;0.000;2023-04-01T00:03:05;96387.28;;;22.41;29.86
77212;BME280;66206;0.000;0.000;2023-04-01T00:05:32;96385.37;;;22.47;29.81
77212;BME280;66206;0.000;0.000;2023-04-01T00:07:59;96380.79;;;22.26;29.90
77212;BME280;66206;0.000;0.000;2023-04-01T00:10:25;96373.51;;;22.38;29.92
77212;BME280;66206;0.000;0.000;2023-04-01T00:12:52;96372.72;;;22.33;29.86
77212;BME280;66206;0.000;0.000;2023-04-01T00:15:19;96377.21;;;22.38;29.88
77212;BME280;66206;0.000;0.000;2023-04-01T00:17:45;96374.65;;;22.40;29.83
77212;BME280;66206;0.000;0.000;2023-04-01T00:20:12;96375.36;;;22.44;29.79
77212;BME280;66206;0.000;0.000;2023-04-01T00:22:38;96375.52;;;22.43;29.80
77212;BME280;66206;0.000;0.000;2023-04-01T00:25:05;96377.27;;;22.40;29.82
77212;BME280;66206;0.000;0.000;2023-04-01T00:27:32;96381.85;;;22.32;29.73
77212;BME280;66206;0.000;0.000;2023-04-01T00:29:59;96374.47;;;22.33;29.79
77212;BME280;66206;0.000;0.000;2023-04-01T00:32:26;96374.76;;;22.26;29.75
77212;BME280;66206;0.000;0.000;2023-04-01T00:34:52;96375.96;;;22.40;29.73
77212;BME280;66206;0.000;0.000;2023-04-01T00:37:19;96374.08;;;22.31;29.76
77212;BME280;66206;0.000;0.000;2023-04-01T00:39:46;96379.43;;;22.42;29.72
77212;BME280;66206;0.000;0.000;2023-04-01T00:42:13;96375.37;;;22.44;29.65
77212;BME280;66206;0.000;0.000;2023-04-01T00:44:39;96376.27;;;22.37;29.70
77212;BME280;66206;0.000;0.000;2023-04-01T00:47:06;96377.40;;;22.34;29.80
77212;BME280;66206;0.000;0.000;2023-04-01T00:49:34;96374.83;;;22.28;29.66
77212;BME280;66206;0.000;0.000;2023-04-01T00:51:58;96379.25;;;22.36;29.73
77212;BME280;66206;0.000;0.000;2023-04-01T00:54:26;96377.37;;;22.34;29.72
77212;BME280;66206;0.000;0.000;2023-04-01T00:56:55;96371.71;;;22.36;29.73
77212;BME280;66206;0.000;0.000;2023-04-01T00:59:23;96370.91;;;22.46;29.68
77212;BME280;66206;0.000;0.000;2023-04-01T01:01:51;96367.38;;;22.38;29.75
77212;BME280;66206;0.000;0.000;2023-04-01T01:04:25;96370.07;;;22.29;29.73
77212;BME280;66206;0.000;0.000;2023-04-01T01:06:49;96366.65;;;22.29;29.74
77212;BME280;66206;0.000;0.000;2023-04-01T01:09:14;96373.86;;;22.25;29.73
77212;BME280;66206;0.000;0.000;2023-04-01T01:11:42;96372.29;;;22.25;29.72
77212;BME280;66206;0.000;0.000;2023-04-01T01:14:11;96376.00;;;22.27;29.71
77212;BME280;66206;0.000;0.000;2023-04-01T01:16:41;96375.50;;;22.42;29.68
77212;BME280;66206;0.000;0.000;2023-04-01T01:19:11;96375.12;;;22.29;29.80
77212;BME280;66206;0.000;0.000;2023-04-01T01:21:41;96374.16;;;22.21;29.75
77212;BME280;66206;0.000;0.000;2023-04-01T01:24:08;96374.26;;;22.24;29.71
77212;BME280;66206;0.000;0.000;2023-04-01T01:27:04;96373.39;;;22.34;29.69
77212;BME280;66206;0.000;0.000;2023-04-01T01:29:04;96370.74;;;22.02;29.89
77212;BME280;66206;0.000;0.000;2023-04-01T01:31:29;96367.27;;;22.07;29.93
77212;BME280;66206;0.000;0.000;2023-04-01T01:33:58;96363.91;;;22.13;29.68
77212;BME280;66206;0.000;0.000;2023-04-01T01:36:24;96364.91;;;22.25;29.65
77212;BME280;66206;0.000;0.000;2023-04-01T01:38:52;96362.18;;;22.18;29.68
77212;BME280;66206;0.000;0.000;2023-04-01T01:41:20;96360.72;;;22.26;29.53
77212;BME280;66206;0.000;0.000;2023-04-01T01:43:48;96355.77;;;22.18;29.67
77212;BME280;66206;0.000;0.000;2023-04-01T01:46:17;96358.70;;;22.22;29.73
77212;BME280;66206;0.000;0.000;2023-04-01T01:48:45;96355.19;;;22.09;29.71
77212;BME280;66206;0.000;0.000;2023-04-01T01:51:13;96356.18;;;22.18;29.74
77212;BME280;66206;0.000;0.000;2023-04-01T01:53:40;96353.91;;;22.23;29.71
77212;BME280;66206;0.000;0.000;2023-04-01T01:56:07;96349.30;;;22.22;29.69
77212;BME280;66206;0.000;0.000;2023-04-01T01:58:36;96353.18;;;22.25;29.70
77212;BME280;66206;0.000;0.000;2023-04-01T02:01:05;96352.77;;;22.20;29.68
77212;BME280;66206;0.000;0.000;2023-04-01T02:03:33;96345.40;;;22.12;29.74
77212;BME280;66206;0.000;0.000;2023-04-01T02:06:01;96347.53;;;22.19;29.64
77212;BME280;66206;0.000;0.000;2023-04-01T02:08:30;96345.29;;;22.23;29.66
77212;BME280;66206;0.000;0.000;2023-04-01T02:11:00;96345.95;;;22.04;29.73
77212;BME280;66206;0.000;0.000;2023-04-01T02:13:28;96350.00;;;22.25;29.66
77212;BME280;66206;0.000;0.000;2023-04-01T02:15:56;96344.34;;;22.17;29.73
77212;BME280;66206;0.000;0.000;2023-04-01T02:18:25;96346.50;;;22.07;29.82
77212;BME280;66206;0.000;0.000;2023-04-01T02:20:52;96344.25;;;22.11;29.73
77212;BME280;66206;0.000;0.000;2023-04-01T02:23:19;96352.03;;;22.18;29.60
77212;BME280;66206;0.000;0.000;2023-04-01T02:25:46;96349.65;;;21.85;29.90
77212;BME280;66206;0.000;0.000;2023-04-01T02:28:13;96356.03;;;22.10;29.67
77212;BME280;66206;0.000;0.000;2023-04-01T02:30:40;96356.02;;;22.04;29.77
77212;BME280;66206;0.000;0.000;2023-04-01T02:33:09;96354.26;;;22.16;29.61
77212;BME280;66206;0.000;0.000;2023-04-01T02:35:36;96352.80;;;22.04;29.65
77212;BME280;66206;0.000;0.000;2023-04-01T02:38:02;96355.01;;;22.16;29.65
77212;BME280;66206;0.000;0.000;2023-04-01T02:40:29;96361.06;;;21.93;29.76
77212;BME280;66206;0.000;0.000;2023-04-01T02:42:56;96359.67;;;22.03;29.77
77212;BME280;66206;0.000;0.000;2023-04-01T02:45:23;96358.81;;;21.96;29.74
77212;BME280;66206;0.000;0.000;2023-04-01T02:47:49;96364.41;;;22.05;29.76
77212;BME280;66206;0.000;0.000;2023-04-01T02:50:16;96364.15;;;21.99;29.79
77212;BME280;66206;0.000;0.000;2023-04-01T02:52:42;96365.71;;;21.92;29.79
77212;BME280;66206;0.000;0.000;2023-04-01T02:55:09;96365.59;;;22.03;29.78
77212;BME280;66206;0.000;0.000;2023-04-01T02:57:36;96369.10;;;21.96;29.83
77212;BME280;66206;0.000;0.000;2023-04-01T03:00:03;96369.97;;;22.05;29.57
77212;BME280;66206;0.000;0.000;2023-04-01T03:02:29;96374.84;;;22.07;29.69
77212;BME280;66206;0.000;0.000;2023-04-01T03:04:56;96377.00;;;21.96;29.75
77212;BME280;66206;0.000;0.000;2023-04-01T03:07:23;96378.39;;;22.07;29.70
77212;BME280;66206;0.000;0.000;2023-04-01T03:09:49;96376.17;;;22.02;29.69
77212;BME280;66206;0.000;0.000;2023-04-01T03:12:16;96380.02;;;21.97;29.62
77212;BME280;66206;0.000;0.000;2023-04-01T03:14:43;96384.13;;;22.04;29.68
77212;BME280;66206;0.000;0.000;2023-04-01T03:17:09;96382.74;;;22.14;29.56
77212;BME280;66206;0.000;0.000;2023-04-01T03:19:36;96384.16;;;22.09;29.63
77212;BME280;66206;0.000;0.000;2023-04-01T03:22:02;96385.50;;;22.21;29.47
77212;BME280;66206;0.000;0.000;2023-04-01T03:24:29;96385.13;;;22.01;29.59
77212;BME280;66206;0.000;0.000;2023-04-01T03:26:56;96384.99;;;22.05;29.52
77212;BME280;66206;0.000;0.000;2023-04-01T03:29:22;96387.77;;;22.20;29.47
77212;BME280;66206;0.000;0.000;2023-04-01T03:31:49;96388.39;;;22.17;29.46
77212;BME280;66206;0.000;0.000;2023-04-01T03:34:15;96390.14;;;22.30;29.45
77212;BME280;66206;0.000;0.000;2023-04-01T03:36:42;96390.84;;;22.25;29.43
77212;BME280;66206;0.000;0.000;2023-04-01T03:39:09;96391.72;;;22.21;29.43
77212;BME280;66206;0.000;0.000;2023-04-01T03:41:36;96393.28;;;22.22;29.42
77212;BME280;66206;0.000;0.000;2023-04-01T03:44:03;96392.97;;;22.35;29.31
77212;BME280;66206;0.000;0.000;2023-04-01T03:46:29;96400.01;;;22.20;29.40
77212;BME280;66206;0.000;0.000;2023-04-01T03:48:56;96401.54;;;22.31;29.42
77212;BME280;66206;0.000;0.000;2023-04-01T03:51:23;96403.71;;;22.21;29.44
77212;BME280;66206;0.000;0.000;2023-04-01T03:53:49;96411.95;;;22.26;29.37
77212;BME280;66206;0.000;0.000;2023-04-01T03:56:16;96398.04;;;22.14;29.41
77212;BME280;66206;0.000;0.000;2023-04-01T03:58:42;96399.91;;;22.22;29.44
77212;BME280;66206;0.000;0.000;2023-04-01T04:01:13;96404.29;;;22.18;29.48
77212;BME280;66206;0.000;0.000;2023-04-01T04:03:34;96400.65;;;22.22;29.38
77212;BME280;66206;0.000;0.000;2023-04-01T04:06:01;96404.47;;;22.28;29.44
77212;BME280;66206;0.000;0.000;2023-04-01T04:08:28;96411.83;;;22.23;29.51
77212;BME280;66206;0.000;0.000;2023-04-01T04:10:55;96402.29;;;22.25;29.43
77212;BME280;66206;0.000;0.000;2023-04-01T04:13:21;96412.67;;;22.15;29.52
77212;BME280;66206;0.000;0.000;2023-04-01T04:15:48;96409.30;;;22.23;29.44
77212;BME280;66206;0.000;0.000;2023-04-01T04:18:14;96403.16;;;22.20;29.45
77212;BME280;66206;0.000;0.000;2023-04-01T04:20:43;96402.14;;;22.03;29.49
77212;BME280;66206;0.000;0.000;2023-04-01T04:23:09;96408.15;;;22.23;29.38
77212;BME280;66206;0.000;0.000;2023-04-01T04:25:36;96414.89;;;22.13;29.46
77212;BME280;66206;0.000;0.000;2023-04-01T04:28:03;96409.46;;;21.95;29.59
77212;BME280;66206;0.000;0.000;2023-04-01T04:30:30;96409.85;;;22.07;29.55
77212;BME280;66206;0.000;0.000;2023-04-01T04:32:56;96413.06;;;22.04;29.49
77212;BME280;66206;0.000;0.000;2023-04-01T04:35:23;96414.55;;;22.01;29.50
77212;BME280;66206;0.000;0.000;2023-04-01T04:37:49;96414.35;;;22.05;29.51
77212;BME280;66206;0.000;0.000;2023-04-01T04:40:16;96418.46;;;22.14;29.49
77212;BME280;66206;0.000;0.000;2023-04-01T04:42:43;96415.19;;;22.14;29.47
77212;BME280;66206;0.000;0.000;2023-04-01T04:45:09;96415.04;;;22.07;29.48
77212;BME280;66206;0.000;0.000;2023-04-01T04:47:36;96418.98;;;21.96;29.64
77212;BME280;66206;0.000;0.000;2023-04-01T04:50:03;96422.34;;;22.07;29.48
77212;BME280;66206;0.000;0.000;2023-04-01T04:52:30;96417.84;;;22.11;29.51
77212;BME280;66206;0.000;0.000;2023-04-01T04:54:56;96416.19;;;21.97;29.61
77212;BME280;66206;0.000;0.000;2023-04-01T04:57:23;96412.84;;;22.07;29.52
77212;BME280;66206;0.000;0.000;2023-04-01T04:59:50;96416.20;;;21.91;29.53
77212;BME280;66206;0.000;0.000;2023-04-01T05:02:16;96415.81;;;22.10;29.50
77212;BME280;66206;0.000;0.000;2023-04-01T05:04:43;96418.26;;;22.14;29.44
77212;BME280;66206;0.000;0.000;2023-04-01T05:07:09;96418.02;;;22.03;29.51
77212;BME280;66206;0.000;0.000;2023-04-01T05:09:36;96417.23;;;22.06;29.47
77212;BME280;66206;0.000;0.000;2023-04-01T05:12:03;96415.96;;;22.01;29.49
77212;BME280;66206;0.000;0.000;2023-04-01T05:14:30;96414.47;;;22.20;29.36
77212;BME280;66206;0.000;0.000;2023-04-01T05:16:56;96422.60;;;22.16;29.35
77212;BME280;66206;0.000;0.000;2023-04-01T05:19:23;96417.83;;;22.11;29.37
77212;BME280;66206;0.000;0.000;2023-04-01T05:21:49;96421.24;;;22.00;29.50
77212;BME280;66206;0.000;0.000;2023-04-01T05:24:16;96419.16;;;22.04;29.46
77212;BME280;66206;0.000;0.000;2023-04-01T05:26:43;96421.04;;;22.09;29.46
77212;BME280;66206;0.000;0.000;2023-04-01T05:29:09;96426.92;;;22.17;29.42
77212;BME280;66206;0.000;0.000;2023-04-01T05:31:36;96420.39;;;22.15;29.40
77212;BME280;66206;0.000;0.000;2023-04-01T05:34:03;96426.17;;;22.00;29.48
77212;BME280;66206;0.000;0.000;2023-04-01T05:36:29;96421.77;;;22.12;29.40
77212;BME280;66206;0.000;0.000;2023-04-01T05:38:56;96421.80;;;22.05;29.46
77212;BME280;66206;0.000;0.000;2023-04-01T05:41:23;96420.18;;;22.00;29.43
77212;BME280;66206;0.000;0.000;2023-04-01T05:43:49;96417.25;;;22.08;29.45
77212;BME280;66206;0.000;0.000;2023-04-01T05:46:16;96418.05;;;22.00;29.46
77212;BME280;66206;0.000;0.000;2023-04-01T05:48:43;96413.61;;;21.90;29.61
77212;BME280;66206;0.000;0.000;2023-04-01T05:51:11;96411.82;;;22.03;29.42
77212;BME280;66206;0.000;0.000;2023-04-01T05:53:38;96412.40;;;22.11;29.45
77212;BME280;66206;0.000;0.000;2023-04-01T05:56:05;96412.41;;;22.06;29.47
77212;BME280;66206;0.000;0.000;2023-04-01T05:58:32;96411.46;;;22.15;29.38
77212;BME280;66206;0.000;0.000;2023-04-01T06:01:00;96416.20;;;22.19;29.27
77212;BME280;66206;0.000;0.000;2023-04-01T06:03:27;96416.04;;;22.12;29.34
77212;BME280;66206;0.000;0.000;2023-04-01T06:05:53;96426.90;;;22.14;29.27
77212;BME280;66206;0.000;0.000;2023-04-01T06:08:20;96418.79;;;22.09;29.35
77212;BME280;66206;0.000;0.000;2023-04-01T06:10:51;96428.85;;;22.08;29.36
77212;BME280;66206;0.000;0.000;2023-04-01T06:13:17;96426.36;;;22.09;29.29
77212;BME280;66206;0.000;0.000;2023-04-01T06:15:43;96431.67;;;22.05;29.45
77212;BME280;66206;0.000;0.000;2023-04-01T06:18:19;96429.83;;;22.23;29.24
77212;BME280;66206;0.000;0.000;2023-04-01T06:20:39;96430.77;;;22.15;29.23
77212;BME280;66206;0.000;0.000;2023-04-01T06:23:07;96428.92;;;22.06;29.25
77212;BME280;66206;0.000;0.000;2023-04-01T06:25:36;96431.04;;;22.05;29.30
77212;BME280;66206;0.000;0.000;2023-04-01T06:28:04;96428.09;;;22.17;29.31
77212;BME280;66206;0.000;0.000;2023-04-01T06:30:31;96429.19;;;22.13;29.32
77212;BME280;66206;0.000;0.000;2023-04-01T06:33:02;96427.91;;;22.19;29.24
77212;BME280;66206;0.000;0.000;2023-04-01T06:35:31;96427.46;;;22.16;29.11
77212;BME280;66206;0.000;0.000;2023-04-01T06:38:17;96434.46;;;22.03;29.23
77212;BME280;66206;0.000;0.000;2023-04-01T06:40:31;96433.93;;;22.16;29.25
77212;BME280;66206;0.000;0.000;2023-04-01T06:42:54;96430.48;;;22.03;29.36
77212;BME280;66206;0.000;0.000;2023-04-01T06:45:27;96434.98;;;22.14;29.26
77212;BME280;66206;0.000;0.000;2023-04-01T06:47:55;96435.96;;;22.06;29.27
77212;BME280;66206;0.000;0.000;2023-04-01T06:50:19;96435.40;;;22.22;29.21
77212;BME280;66206;0.000;0.000;2023-04-01T06:52:45;96430.95;;;22.24;29.22
77212;BME280;66206;0.000;0.000;2023-04-01T06:55:16;96434.68;;;22.19;29.23
77212;BME280;66206;0.000;0.000;2023-04-01T06:57:38;96436.92;;;22.14;29.26
77212;BME280;66206;0.000;0.000;2023-04-01T07:00:11;96434.86;;;22.11;29.24
77212;BME280;66206;0.000;0.000;2023-04-01T07:02:36;96429.78;;;21.93;29.43
77212;BME280;66206;0.000;0.000;2023-04-01T07:05:00;96425.55;;;22.03;29.42
77212;BME280;66206;0.000;0.000;2023-04-01T07:07:30;96430.60;;;21.90;29.45
77212;BME280;66206;0.000;0.000;2023-04-01T07:09:53;96425.88;;;21.91;29.47
77212;BME280;66206;0.000;0.000;2023-04-01T07:12:23;96422.08;;;22.07;29.35
77212;BME280;66206;0.000;0.000;2023-04-01T07:14:50;96421.62;;;21.98;29.54
77212;BME280;66206;0.000;0.000;2023-04-01T07:17:20;96421.26;;;21.96;29.43
77212;BME280;66206;0.000;0.000;2023-04-01T07:19:50;96419.06;;;21.89;29.64
77212;BME280;66206;0.000;0.000;2023-04-01T07:22:16;96419.07;;;22.04;29.66
77212;BME280;66206;0.000;0.000;2023-04-01T07:24:41;96411.92;;;21.95;29.83
77212;BME280;66206;0.000;0.000;2023-04-01T07:27:10;96419.24;;;21.94;29.84
77212;BME280;66206;0.000;0.000;2023-04-01T07:29:37;96421.71;;;21.99;29.81
77212;BME280;66206;0.000;0.000;2023-04-01T07:32:07;96416.30;;;21.95;29.94
77212;BME280;66206;0.000;0.000;2023-04-01T07:34:31;96417.55;;;21.94;29.87
77212;BME280;66206;0.000;0.000;2023-04-01T07:36:58;96414.55;;;21.94;29.98
77212;BME280;66206;0.000;0.000;2023-04-01T07:39:29;96416.32;;;21.89;30.05
77212;BME280;66206;0.000;0.000;2023-04-01T07:41:52;96416.57;;;21.96;29.95
77212;BME280;66206;0.000;0.000;2023-04-01T07:44:22;96433.55;;;21.99;29.96
77212;BME280;66206;0.000;0.000;2023-04-01T07:46:51;96424.68;;;22.00;29.91
77212;BME280;66206;0.000;0.000;2023-04-01T07:49:15;96427.37;;;21.96;29.87
77212;BME280;66206;0.000;0.000;2023-04-01T07:51:45;96432.49;;;21.99;29.97
77212;BME280;66206;0.000;0.000;2023-04-01T07:54:11;96435.25;;;21.92;29.98
77212;BME280;66206;0.000;0.000;2023-04-01T07:56:40;96437.34;;;21.94;30.04
77212;BME280;66206;0.000;0.000;2023-04-01T07:59:06;96433.11;;;21.94;30.13
77212;BME280;66206;0.000;0.000;2023-04-01T08:01:33;96436.61;;;21.88;30.10
77212;BME280;66206;0.000;0.000;2023-04-01T08:04:04;96441.55;;;21.88;30.22
77212;BME280;66206;0.000;0.000;2023-04-01T08:06:24;96445.38;;;21.92;30.12
77212;BME280;66206;0.000;0.000;2023-04-01T08:08:53;96440.20;;;21.93;30.16
77212;BME280;66206;0.000;0.000;2023-04-01T08:11:21;96441.88;;;22.00;30.09
77212;BME280;66206;0.000;0.000;2023-04-01T08:13:49;96436.57;;;21.97;30.20
77212;BME280;66206;0.000;0.000;2023-04-01T08:16:15;96433.24;;;21.92;30.25
77212;BME280;66206;0.000;0.000;2023-04-01T08:18:43;96436.34;;;21.91;30.32
77212;BME280;66206;0.000;0.000;2023-04-01T08:21:10;96440.17;;;22.09;30.15
77212;BME280;66206;0.000;0.000;2023-04-01T08:23:33;96435.59;;;21.97;30.41
77212;BME280;66206;0.000;0.000;2023-04-01T08:26:04;96439.12;;;21.98;30.43
77212;BME280;66206;0.000;0.000;2023-04-01T08:28:34;96439.17;;;21.98;30.45
77212;BME280;66206;0.000;0.000;2023-04-01T08:30:59;96439.92;;;22.16;30.46
77212;BME280;66206;0.000;0.000;2023-04-01T08:33:28;96437.16;;;22.23;30.53
77212;BME280;66206;0.000;0.000;2023-04-01T08:35:56;96440.03;;;22.28;30.53
77212;BME280;66206;0.000;0.000;2023-04-01T08:38:27;96434.58;;;22.15;30.52
77212;BME280;66206;0.000;0.000;2023-04-01T08:40:59;96439.23;;;22.23;30.54
77212;BME280;66206;0.000;0.000;2023-04-01T08:43:22;96437.60;;;22.24;30.53
77212;BME280;66206;0.000;0.000;2023-04-01T08:45:53;96431.09;;;22.21;30.63
77212;BME280;66206;0.000;0.000;2023-04-01T08:48:23;96433.90;;;22.15;30.85
77212;BME280;66206;0.000;0.000;2023-04-01T08:50:49;96427.43;;;21.70;31.31
77212;BME280;66206;0.000;0.000;2023-04-01T08:53:12;96429.65;;;22.11;30.83
77212;BME280;66206;0.000;0.000;2023-04-01T08:55:44;96426.48;;;21.73;31.31
77212;BME280;66206;0.000;0.000;2023-04-01T08:58:25;96428.54;;;22.04;30.99
77212;BME280;66206;0.000;0.000;2023-04-01T09:00:31;96424.27;;;22.59;30.41
77212;BME280;66206;0.000;0.000;2023-04-01T09:03:05;96428.19;;;22.67;30.35
77212;BME280;66206;0.000;0.000;2023-04-01T09:05:31;96424.18;;;22.81;30.20
77212;BME280;66206;0.000;0.000;2023-04-01T09:07:54;96429.57;;;22.85;29.99
77212;BME280;66206;0.000;0.000;2023-04-01T09:10:22;96433.71;;;23.04;29.86
77212;BME280;66206;0.000;0.000;2023-04-01T09:12:50;96425.49;;;22.85;29.81
77212;BME280;66206;0.000;0.000;2023-04-01T09:15:34;96432.66;;;23.08;29.61
77212;BME280;66206;0.000;0.000;2023-04-01T09:17:50;96433.67;;;22.98;29.56
77212;BME280;66206;0.000;0.000;2023-04-01T09:20:19;96428.30;;;23.32;29.34
77212;BME280;66206;0.000;0.000;2023-04-01T09:22:39;96435.03;;;23.49;29.21
77212;BME280;66206;0.000;0.000;2023-04-01T09:25:08;96424.83;;;23.41;29.21
77212;BME280;66206;0.000;0.000;2023-04-01T09:27:31;96422.22;;;23.63;28.90
77212;BME280;66206;0.000;0.000;2023-04-01T09:30:24;96431.83;;;23.60;29.08
77212;BME280;66206;0.000;0.000;2023-04-01T09:32:34;96421.60;;;23.51;29.30
77212;BME280;66206;0.000;0.000;2023-04-01T09:35:02;96424.85;;;23.70;29.05
77212;BME280;66206;0.000;0.000;2023-04-01T09:37:31;96429.67;;;23.81;29.06
77212;BME280;66206;0.000;0.000;2023-04-01T09:40:02;96429.81;;;23.40;29.35
77212;BME280;66206;0.000;0.000;2023-04-01T09:42:29;96432.42;;;23.25;29.65
77212;BME280;66206;0.000;0.000;2023-04-01T09:44:56;96430.72;;;23.35;29.49
77212;BME280;66206;0.000;0.000;2023-04-01T09:47:28;96423.59;;;23.67;29.06
77212;BME280;66206;0.000;0.000;2023-04-01T09:49:57;96430.00;;;23.54;29.19
77212;BME280;66206;0.000;0.000;2023-04-01T09:52:21;96430.97;;;23.91;28.79
77212;BME280;66206;0.000;0.000;2023-04-01T09:54:49;96436.50;;;23.86;28.81
77212;BME280;66206;0.000;0.000;2023-04-01T09:57:30;96429.98;;;23.78;28.94
77212;BME280;66206;0.000;0.000;2023-04-01T10:01:58;96436.21;;;23.88;28.86
77212;BME280;66206;0.000;0.000;2023-04-01T10:04:31;96432.83;;;23.92;28.72
77212;BME280;66206;0.000;0.000;2023-04-01T10:06:53;96441.77;;;24.03;28.52
77212;BME280;66206;0.000;0.000;2023-04-01T10:09:27;96453.50;;;24.00;28.62
77212;BME280;66206;0.000;0.000;2023-04-01T10:14:07;96451.07;;;24.07;28.61
77212;BME280;66206;0.000;0.000;2023-04-01T10:16:26;96459.62;;;23.91;28.71
77212;BME280;66206;0.000;0.000;2023-04-01T10:18:56;96454.63;;;23.88;28.90
77212;BME280;66206;0.000;0.000;2023-04-01T10:21:31;96451.73;;;23.74;29.00
77212;BME280;66206;0.000;0.000;2023-04-01T10:23:53;96451.09;;;23.85;28.90
77212;BME280;66206;0.000;0.000;2023-04-01T10:26:20;96448.05;;;23.91;28.72
77212;BME280;66206;0.000;0.000;2023-04-01T10:29:02;96443.51;;;23.71;29.06
77212;BME280;66206;0.000;0.000;2023-04-01T10:31:20;96446.57;;;23.86;28.82
77212;BME280;66206;0.000;0.000;2023-04-01T10:34:00;96446.63;;;23.79;28.90
77212;BME280;66206;0.000;0.000;2023-04-01T10:36:12;96440.11;;;23.52;29.16
77212;BME280;66206;0.000;0.000;2023-04-01T10:38:38;96440.57;;;23.33;29.39
77212;BME280;66206;0.000;0.000;2023-04-01T10:41:07;96435.85;;;23.70;28.98
77212;BME280;66206;0.000;0.000;2023-04-01T10:43:37;96430.95;;;23.42;29.20
77212;BME280;66206;0.000;0.000;2023-04-01T10:46:03;96432.09;;;23.33;29.44
77212;BME280;66206;0.000;0.000;2023-04-01T10:48:29;96431.98;;;23.66;29.00
77212;BME280;66206;0.000;0.000;2023-04-01T10:51:29;96429.38;;;23.36;29.34
77212;BME280;66206;0.000;0.000;2023-04-01T10:53:23;96429.90;;;23.37;29.46
77212;BME280;66206;0.000;0.000;2023-04-01T10:55:50;96432.67;;;23.68;29.12
77212;BME280;66206;0.000;0.000;2023-04-01T10:58:21;96434.09;;;23.71;29.14
77212;BME280;66206;0.000;0.000;2023-04-01T11:01:17;96428.63;;;23.57;29.13
77212;BME280;66206;0.000;0.000;2023-04-01T11:03:16;96429.96;;;23.44;29.46
77212;BME280;66206;0.000;0.000;2023-04-01T11:05:42;96428.17;;;23.39;29.43
77212;BME280;66206;0.000;0.000;2023-04-01T11:08:08;96437.40;;;23.27;29.52
77212;BME280;66206;0.000;0.000;2023-04-01T11:10:44;96431.84;;;23.02;29.64
77212;BME280;66206;0.000;0.000;2023-04-01T11:13:21;96436.68;;;23.13;29.85
77212;BME280;66206;0.000;0.000;2023-04-01T11:15:41;96433.18;;;23.53;29.30
77212;BME280;66206;0.000;0.000;2023-04-01T11:19:35;96436.97;;;23.81;29.06
77212;BME280;66206;0.000;0.000;2023-04-01T11:22:37;96434.01;;;23.76;29.09
77212;BME280;66206;0.000;0.000;2023-04-01T11:25:05;96435.80;;;23.76;29.01
77212;BME280;66206;0.000;0.000;2023-04-01T11:27:37;96440.15;;;23.42;29.44
77212;BME280;66206;0.000;0.000;2023-04-01T11:30:02;96442.69;;;23.30;29.54
77212;BME280;66206;0.000;0.000;2023-04-01T11:32:26;96443.87;;;23.36;29.44
77212;BME280;66206;0.000;0.000;2023-04-01T11:34:53;96442.94;;;23.44;29.35
77212;BME280;66206;0.000;0.000;2023-04-01T11:37:24;96438.98;;;23.40;29.49
77212;BME280;66206;0.000;0.000;2023-04-01T11:39:46;96440.52;;;23.62;29.30
77212;BME280;66206;0.000;0.000;2023-04-01T11:42:16;96441.95;;;23.55;29.21
77212;BME280;66206;0.000;0.000;2023-04-01T11:44:39;96442.03;;;23.69;29.16
77212;BME280;66206;0.000;0.000;2023-04-01T11:47:15;96450.39;;;23.47;29.22
77212;BME280;66206;0.000;0.000;2023-04-01T11:49:36;96445.41;;;23.46;29.31
77212;BME280;66206;0.000;0.000;2023-04-01T11:52:34;96447.32;;;23.78;29.10
77212;BME280;66206;0.000;0.000;2023-04-01T11:54:31;96448.27;;;23.84;28.85
77212;BME280;66206;0.000;0.000;2023-04-01T11:56:56;96443.55;;;23.86;28.79
77212;BME280;66206;0.000;0.000;2023-04-01T11:59:27;96446.66;;;24.10;28.63
77212;BME280;66206;0.000;0.000;2023-04-01T12:01:50;96451.29;;;23.95;28.72
77212;BME280;66206;0.000;0.000;2023-04-01T12:04:27;96456.09;;;23.59;29.26
77212;BME280;66206;0.000;0.000;2023-04-01T12:06:44;96455.80;;;23.69;29.03
77212;BME280;66206;0.000;0.000;2023-04-01T12:09:12;96456.54;;;23.66;29.09
77212;BME280;66206;0.000;0.000;2023-04-01T12:11:38;96450.97;;;23.40;29.45
77212;BME280;66206;0.000;0.000;2023-04-01T12:14:05;96455.66;;;23.38;29.42
77212;BME280;66206;0.000;0.000;2023-04-01T12:16:37;96457.37;;;23.48;29.42
77212;BME280;66206;0.000;0.000;2023-04-01T12:18:59;96457.09;;;23.26;29.51
77212;BME280;66206;0.000;0.000;2023-04-01T12:21:28;96456.98;;;23.69;29.10
77212;BME280;66206;0.000;0.000;2023-04-01T12:23:59;96458.53;;;23.88;28.78
77212;BME280;66206;0.000;0.000;2023-04-01T12:26:26;96457.25;;;23.51;29.22
77212;BME280;66206;0.000;0.000;2023-04-01T12:28:52;96455.29;;;23.75;28.94
77212;BME280;66206;0.000;0.000;2023-04-01T12:31:19;96459.51;;;23.60;29.11
77212;BME280;66206;0.000;0.000;2023-04-01T12:33:51;96456.54;;;23.67;29.12
77212;BME280;66206;0.000;0.000;2023-04-01T12:36:13;96461.08;;;23.75;29.03
77212;BME280;66206;0.000;0.000;2023-04-01T12:38:42;96462.14;;;23.64;29.11
77212;BME280;66206;0.000;0.000;2023-04-01T12:41:09;96460.34;;;23.75;29.10
77212;BME280;66206;0.000;0.000;2023-04-01T12:43:38;96455.33;;;23.51;29.22
77212;BME280;66206;0.000;0.000;2023-04-01T12:46:01;96457.88;;;23.87;28.87
77212;BME280;66206;0.000;0.000;2023-04-01T12:48:28;96463.49;;;23.76;28.96
77212;BME280;66206;0.000;0.000;2023-04-01T12:50:57;96457.23;;;23.55;29.21
77212;BME280;66206;0.000;0.000;2023-04-01T12:53:23;96460.26;;;23.72;28.99
77212;BME280;66206;0.000;0.000;2023-04-01T12:55:47;96456.15;;;23.85;28.83
77212;BME280;66206;0.000;0.000;2023-04-01T12:59:24;96457.80;;;23.63;29.05
77212;BME280;66206;0.000;0.000;2023-04-01T13:00:45;96454.03;;;23.69;28.99
77212;BME280;66206;0.000;0.000;2023-04-01T13:03:19;96452.77;;;23.70;29.05
77212;BME280;66206;0.000;0.000;2023-04-01T13:12:59;96458.01;;;23.67;28.65
77212;BME280;66206;0.000;0.000;2023-04-01T13:15:26;96465.93;;;23.44;29.05
77212;BME280;66206;0.000;0.000;2023-04-01T13:17:51;96466.55;;;23.67;28.96
77212;BME280;66206;0.000;0.000;2023-04-01T13:20:20;96467.78;;;23.38;29.31
77212;BME280;66206;0.000;0.000;2023-04-01T13:22:48;96468.78;;;23.23;29.43